createdAt,value
2023-04-05T00:00:26.602Z,939.61
2023-04-05T00:01:26.765Z,939.59
2023-04-05T00:02:27.166Z,939.59
2023-04-05T00:03:27.996Z,939.57
2023-04-05T00:04:28.125Z,939.52
2023-04-05T00:05:28.321Z,939.52
2023-04-05T00:06:28.454Z,939.52
2023-04-05T00:07:29.328Z,939.51
2023-04-05T00:08:30.035Z,939.5
2023-04-05T00:09:30.730Z,939.51
2023-04-05T00:10:31.480Z,939.54
2023-04-05T00:11:32.243Z,939.53
2023-04-05T00:12:32.937Z,939.51
2023-04-05T00:13:33.417Z,939.5
2023-04-05T00:14:34.411Z,939.48
2023-04-05T00:15:35.312Z,939.48
2023-04-05T00:16:36.035Z,939.43
2023-04-05T00:17:36.899Z,939.42
2023-04-05T00:18:37.004Z,939.44
2023-04-05T00:19:37.689Z,939.42
2023-04-05T00:20:38.488Z,939.4
2023-04-05T00:21:39.289Z,939.41
2023-04-05T00:22:39.803Z,939.44
2023-04-05T00:23:40.604Z,939.41
2023-04-05T00:24:41.543Z,939.4
2023-04-05T00:25:42.298Z,939.41
2023-04-05T00:26:43.000Z,939.34
2023-04-05T00:27:43.477Z,939.35
2023-04-05T00:28:44.162Z,939.36
2023-04-05T00:29:44.893Z,939.35
2023-04-05T00:30:45.870Z,939.36
2023-04-05T00:31:46.931Z,939.34
2023-04-05T00:32:47.975Z,939.31
2023-04-05T00:33:48.672Z,939.32
2023-04-05T00:34:48.971Z,939.31
2023-04-05T00:35:49.258Z,939.31
2023-04-05T00:36:49.971Z,939.34
2023-04-05T00:37:50.109Z,939.33
2023-04-05T00:38:50.424Z,939.31
2023-04-05T00:39:51.139Z,939.3
2023-04-05T00:40:51.716Z,939.3
2023-04-05T00:41:51.860Z,939.32
2023-04-05T00:42:52.562Z,939.3
2023-04-05T00:43:53.057Z,939.3
2023-04-05T00:44:53.540Z,939.26
2023-04-05T00:45:54.311Z,939.26
2023-04-05T00:46:55.067Z,939.24
2023-04-05T00:47:55.809Z,939.26
2023-04-05T00:48:56.774Z,939.33
2023-04-05T00:49:57.690Z,939.29
2023-04-05T00:50:58.020Z,939.28
2023-04-05T00:51:58.633Z,939.29
2023-04-05T00:52:59.554Z,939.26
2023-04-05T00:54:00.262Z,939.25
2023-04-05T00:55:00.749Z,939.27
2023-04-05T00:56:01.680Z,939.29
2023-04-05T00:57:02.383Z,939.24
2023-04-05T00:58:03.109Z,939.22
2023-04-05T00:59:03.693Z,939.23
2023-04-05T01:00:04.308Z,939.18
2023-04-05T01:01:04.886Z,939.16
2023-04-05T01:02:05.282Z,939.2
2023-04-05T01:03:06.316Z,939.18
2023-04-05T01:04:06.676Z,939.16
2023-04-05T01:05:07.646Z,939.18
2023-04-05T01:06:09.821Z,939.15
2023-04-05T01:07:09.565Z,939.16
2023-04-05T01:08:10.064Z,939.12
2023-04-05T01:09:10.958Z,939.13
2023-04-05T01:10:11.642Z,939.14
2023-04-05T01:11:12.602Z,939.13
2023-04-05T01:12:13.002Z,939.1
2023-04-05T01:13:13.912Z,939.09
2023-04-05T01:14:14.620Z,939.07
2023-04-05T01:15:15.101Z,939.09
2023-04-05T01:16:16.018Z,939.03
2023-04-05T01:17:16.696Z,939.04
2023-04-05T01:18:17.497Z,939.06
2023-04-05T01:19:18.578Z,939.03
2023-04-05T01:20:19.057Z,939
2023-04-05T01:21:19.546Z,939.01
2023-04-05T01:22:19.955Z,938.98
2023-04-05T01:23:20.256Z,938.98
2023-04-05T01:24:21.032Z,938.94
2023-04-05T01:25:21.778Z,938.95
2023-04-05T01:26:21.955Z,938.95
2023-04-05T01:27:22.666Z,938.9
2023-04-05T01:28:22.994Z,938.93
2023-04-05T01:29:23.697Z,938.93
2023-04-05T01:30:24.188Z,938.92
2023-04-05T01:31:24.775Z,938.9
2023-04-05T01:32:24.885Z,938.92
2023-04-05T01:33:25.229Z,938.88
2023-04-05T01:34:26.128Z,938.85
2023-04-05T01:35:26.404Z,938.83
2023-04-05T01:36:26.596Z,938.84
2023-04-05T01:37:27.281Z,938.84
2023-04-05T01:38:28.019Z,938.8
2023-04-05T01:39:28.516Z,938.83
2023-04-05T01:40:28.782Z,938.81
2023-04-05T01:41:29.643Z,938.75
2023-04-05T01:42:29.918Z,938.72
2023-04-05T01:43:30.417Z,938.7
2023-04-05T01:44:31.311Z,938.75
2023-04-05T01:45:31.782Z,938.72
2023-04-05T01:46:32.372Z,938.76
2023-04-05T01:47:33.202Z,938.76
2023-04-05T01:48:34.000Z,938.78
2023-04-05T01:49:34.910Z,938.76
2023-04-05T01:50:35.818Z,938.76
2023-04-05T01:51:36.858Z,938.78
2023-04-05T01:52:37.494Z,938.73
2023-04-05T01:53:38.449Z,938.75
2023-04-05T01:54:39.159Z,938.77
2023-04-05T01:55:39.441Z,938.7
2023-04-05T01:56:40.388Z,938.72
2023-04-05T01:57:41.089Z,938.72
2023-04-05T01:58:41.588Z,938.73
2023-04-05T01:59:42.549Z,938.66
2023-04-05T02:00:43.394Z,938.7
2023-04-05T02:01:43.267Z,938.65
2023-04-05T02:02:43.867Z,938.67
2023-04-05T02:03:44.159Z,938.7
2023-04-05T02:04:45.039Z,938.67
2023-04-05T02:05:45.541Z,938.67
2023-04-05T02:06:46.401Z,938.66
2023-04-05T02:07:46.915Z,938.65
2023-04-05T02:08:47.401Z,938.64
2023-04-05T02:09:48.291Z,938.65
2023-04-05T02:10:48.980Z,938.65
2023-04-05T02:11:50.013Z,938.66
2023-04-05T02:12:51.019Z,938.64
2023-04-05T02:13:51.144Z,938.63
2023-04-05T02:14:51.654Z,938.65
2023-04-05T02:15:52.252Z,938.64
2023-04-05T02:16:53.285Z,938.6
2023-04-05T02:17:53.660Z,938.63
2023-04-05T02:18:54.689Z,938.61
2023-04-05T02:19:55.377Z,938.58
2023-04-05T02:20:56.084Z,938.58
2023-04-05T02:21:56.569Z,938.6
2023-04-05T02:22:57.415Z,938.56
2023-04-05T02:23:57.911Z,938.6
2023-04-05T02:24:58.411Z,938.56
2023-04-05T02:25:59.145Z,938.54
2023-04-05T02:26:59.721Z,938.53
2023-04-05T02:28:00.413Z,938.54
2023-04-05T02:29:00.574Z,938.53
2023-04-05T02:30:01.059Z,938.49
2023-04-05T02:31:01.776Z,938.49
2023-04-05T02:32:02.568Z,938.46
2023-04-05T02:33:02.853Z,938.48
2023-04-05T02:34:03.051Z,938.45
2023-04-05T02:35:03.976Z,938.44
2023-04-05T02:36:04.811Z,938.45
2023-04-05T02:37:05.534Z,938.45
2023-04-05T02:38:06.442Z,938.39
2023-04-05T02:39:07.298Z,938.42
2023-04-05T02:40:07.785Z,938.41
2023-04-05T02:41:08.500Z,938.39
2023-04-05T02:42:09.398Z,938.35
2023-04-05T02:43:09.599Z,938.39
2023-04-05T02:44:10.122Z,938.39
2023-04-05T02:45:10.612Z,938.38
2023-04-05T02:46:10.946Z,938.34
2023-04-05T02:47:11.828Z,938.36
2023-04-05T02:48:12.803Z,938.3
2023-04-05T02:49:12.917Z,938.3
2023-04-05T02:50:13.818Z,938.31
2023-04-05T02:51:14.136Z,938.3
2023-04-05T02:52:14.653Z,938.31
2023-04-05T02:53:15.041Z,938.32
2023-04-05T02:54:15.753Z,938.3
2023-04-05T02:55:16.633Z,938.28
2023-04-05T02:56:17.120Z,938.29
2023-04-05T02:57:18.085Z,938.26
2023-04-05T02:58:18.594Z,938.27
2023-04-05T02:59:19.325Z,938.23
2023-04-05T03:00:20.400Z,938.22
2023-04-05T03:01:21.333Z,938.27
2023-04-05T03:02:22.257Z,938.28
2023-04-05T03:03:23.062Z,938.25
2023-04-05T03:04:23.270Z,938.24
2023-04-05T03:05:23.602Z,938.2
2023-04-05T03:06:24.521Z,938.2
2023-04-05T03:07:24.998Z,938.18
2023-04-05T03:08:25.929Z,938.22
2023-04-05T03:09:26.810Z,938.22
2023-04-05T03:10:27.296Z,938.21
2023-04-05T03:11:27.780Z,938.16
2023-04-05T03:12:28.524Z,938.18
2023-04-05T03:13:29.203Z,938.18
2023-04-05T03:14:30.089Z,938.17
2023-04-05T03:15:30.645Z,938.13
2023-04-05T03:16:31.496Z,938.18
2023-04-05T03:17:31.645Z,938.11
2023-04-05T03:18:32.417Z,938.14
2023-04-05T03:19:33.354Z,938.13
2023-04-05T03:20:34.053Z,938.16
2023-04-05T03:21:34.882Z,938.1
2023-04-05T03:22:35.558Z,938.12
2023-04-05T03:23:36.196Z,938.12
2023-04-05T03:24:36.924Z,938.09
2023-04-05T03:25:37.283Z,938.09
2023-04-05T03:26:37.441Z,938.06
2023-04-05T03:27:38.163Z,938.08
2023-04-05T03:28:38.849Z,938.08
2023-04-05T03:29:39.789Z,938.08
2023-04-05T03:30:40.685Z,938.04
2023-04-05T03:31:41.720Z,938.05
2023-04-05T03:32:41.829Z,938.04
2023-04-05T03:33:42.607Z,938.04
2023-04-05T03:34:43.524Z,938.03
2023-04-05T03:35:43.902Z,938.08
2023-04-05T03:36:44.163Z,938.09
2023-04-05T03:37:45.082Z,938.1
2023-04-05T03:38:46.002Z,938.03
2023-04-05T03:39:46.314Z,938.09
2023-04-05T03:40:46.806Z,938.1
2023-04-05T03:41:47.312Z,938.07
2023-04-05T03:42:48.358Z,938.1
2023-04-05T03:43:48.905Z,938.05
2023-04-05T03:44:49.407Z,938.05
2023-04-05T03:45:49.917Z,938
2023-04-05T03:46:50.409Z,938.04
2023-04-05T03:47:51.205Z,938.03
2023-04-05T03:48:51.368Z,938.04
2023-04-05T03:49:52.334Z,938.05
2023-04-05T03:50:52.878Z,938.03
2023-04-05T03:51:53.583Z,938.02
2023-04-05T03:52:54.293Z,938.02
2023-04-05T03:53:54.882Z,938.01
2023-04-05T03:54:55.630Z,938
2023-04-05T03:55:55.789Z,938.01
2023-04-05T03:56:56.362Z,938.01
2023-04-05T03:57:57.120Z,938
2023-04-05T03:58:57.636Z,938.03
2023-04-05T03:59:58.540Z,937.98
2023-04-05T04:00:58.679Z,938.02
2023-04-05T04:01:59.418Z,937.99
2023-04-05T04:02:59.846Z,938.04
2023-04-05T04:04:00.347Z,938.02
2023-04-05T04:05:01.104Z,937.99
2023-04-05T04:06:01.551Z,938.01
2023-04-05T04:07:02.014Z,937.97
2023-04-05T04:08:02.682Z,938
2023-04-05T04:09:02.962Z,937.95
2023-04-05T04:10:03.280Z,938.01
2023-04-05T04:11:04.193Z,938.01
2023-04-05T04:12:04.882Z,937.96
2023-04-05T04:13:05.829Z,937.98
2023-04-05T04:14:06.054Z,937.97
2023-04-05T04:15:06.396Z,937.97
2023-04-05T04:16:06.703Z,938
2023-04-05T04:17:06.816Z,937.96
2023-04-05T04:18:07.521Z,937.97
2023-04-05T04:19:07.846Z,937.96
2023-04-05T04:20:08.787Z,937.97
2023-04-05T04:21:09.073Z,937.91
2023-04-05T04:22:09.755Z,937.98
2023-04-05T04:23:10.291Z,937.96
2023-04-05T04:24:10.784Z,937.96
2023-04-05T04:25:11.151Z,937.93
2023-04-05T04:26:11.837Z,937.92
2023-04-05T04:27:12.737Z,937.97
2023-04-05T04:28:13.283Z,937.94
2023-04-05T04:29:14.000Z,937.92
2023-04-05T04:30:14.509Z,937.95
2023-04-05T04:31:14.811Z,937.94
2023-04-05T04:32:15.519Z,937.95
2023-04-05T04:33:16.066Z,937.98
2023-04-05T04:34:16.915Z,937.97
2023-04-05T04:35:17.709Z,937.92
2023-04-05T04:36:19.152Z,937.92
2023-04-05T04:37:18.582Z,937.92
2023-04-05T04:38:19.252Z,937.93
2023-04-05T04:39:19.954Z,937.9
2023-04-05T04:40:20.501Z,937.91
2023-04-05T04:41:21.194Z,937.94
2023-04-05T04:42:21.918Z,937.91
2023-04-05T04:43:22.503Z,937.93
2023-04-05T04:44:23.099Z,937.92
2023-04-05T04:45:23.673Z,937.91
2023-04-05T04:46:24.320Z,937.92
2023-04-05T04:47:24.764Z,937.93
2023-04-05T04:48:25.718Z,937.95
2023-04-05T04:49:26.416Z,937.97
2023-04-05T04:50:26.947Z,937.92
2023-04-05T04:51:27.473Z,937.97
2023-04-05T04:52:27.766Z,937.94
2023-04-05T04:53:28.264Z,937.96
2023-04-05T04:54:28.913Z,937.95
2023-04-05T04:55:29.869Z,937.96
2023-04-05T04:56:30.214Z,937.97
2023-04-05T04:57:30.690Z,937.95
2023-04-05T04:58:31.456Z,937.99
2023-04-05T04:59:32.466Z,937.98
2023-04-05T05:00:32.989Z,938
2023-04-05T05:01:33.666Z,938.07
2023-04-05T05:02:33.983Z,938.02
2023-04-05T05:03:34.940Z,938.07
2023-04-05T05:04:35.599Z,938.06
2023-04-05T05:05:36.544Z,938.01
2023-04-05T05:06:37.083Z,938
2023-04-05T05:07:37.973Z,938.03
2023-04-05T05:08:38.299Z,938.04
2023-04-05T05:09:39.005Z,938.03
2023-04-05T05:10:39.915Z,938.01
2023-04-05T05:11:40.351Z,938.01
2023-04-05T05:12:41.093Z,938.03
2023-04-05T05:13:41.855Z,937.99
2023-04-05T05:14:42.268Z,937.99
2023-04-05T05:15:42.911Z,938.06
2023-04-05T05:16:43.621Z,938.01
2023-04-05T05:17:44.285Z,938.04
2023-04-05T05:18:44.352Z,938.05
2023-04-05T05:19:45.253Z,938.05
2023-04-05T05:20:46.273Z,938.01
2023-04-05T05:21:46.782Z,938.02
2023-04-05T05:22:47.457Z,938.05
2023-04-05T05:23:48.367Z,938.07
2023-04-05T05:24:49.181Z,938.08
2023-04-05T05:25:49.881Z,938.11
2023-04-05T05:26:50.571Z,938.09
2023-04-05T05:27:51.285Z,938.08
2023-04-05T05:28:51.503Z,938.11
2023-04-05T05:29:52.193Z,938.07
2023-04-05T05:30:53.108Z,938.12
2023-04-05T05:31:53.779Z,938.08
2023-04-05T05:32:54.145Z,938.1
2023-04-05T05:33:54.825Z,938.15
2023-04-05T05:34:55.633Z,938.12
2023-04-05T05:35:56.381Z,938.14
2023-04-05T05:36:57.435Z,938.16
2023-04-05T05:37:57.970Z,938.19
2023-04-05T05:38:58.249Z,938.17
2023-04-05T05:39:58.948Z,938.17
2023-04-05T05:40:59.860Z,938.18
2023-04-05T05:42:00.357Z,938.22
2023-04-05T05:43:01.271Z,938.18
2023-04-05T05:44:02.021Z,938.22
2023-04-05T05:45:02.522Z,938.23
2023-04-05T05:46:03.258Z,938.22
2023-04-05T05:47:03.731Z,938.22
2023-04-05T05:48:04.372Z,938.24
2023-04-05T05:49:04.943Z,938.24
2023-04-05T05:50:05.641Z,938.23
2023-04-05T05:51:05.803Z,938.21
2023-04-05T05:52:06.500Z,938.18
2023-04-05T05:53:07.117Z,938.3
2023-04-05T05:54:07.407Z,938.24
2023-04-05T05:55:08.192Z,938.26
2023-04-05T05:56:08.923Z,938.27
2023-04-05T05:57:09.467Z,938.33
2023-04-05T05:58:10.225Z,938.29
2023-04-05T05:59:11.194Z,938.31
2023-04-05T06:00:12.108Z,938.33
2023-04-05T06:01:12.529Z,938.3
2023-04-05T06:02:12.888Z,938.31
2023-04-05T06:03:13.763Z,938.28
2023-04-05T06:04:14.401Z,938.29
2023-04-05T06:05:14.520Z,938.37
2023-04-05T06:06:15.184Z,938.37
2023-04-05T06:07:15.889Z,938.33
2023-04-05T06:08:16.597Z,938.3
2023-04-05T06:09:17.323Z,938.31
2023-04-05T06:10:17.820Z,938.29
2023-04-05T06:11:18.763Z,938.29
2023-04-05T06:12:19.445Z,938.24
2023-04-05T06:13:19.810Z,938.27
2023-04-05T06:14:20.860Z,938.25
2023-04-05T06:15:21.663Z,938.22
2023-04-05T06:16:22.440Z,938.23
2023-04-05T06:17:22.647Z,938.25
2023-04-05T06:18:23.142Z,938.23
2023-04-05T06:19:23.637Z,938.24
2023-04-05T06:20:24.342Z,938.23
2023-04-05T06:21:24.963Z,938.24
2023-04-05T06:22:25.463Z,938.28
2023-04-05T06:23:25.789Z,938.31
2023-04-05T06:24:26.514Z,938.41
2023-04-05T06:25:26.948Z,938.49
2023-04-05T06:26:28.028Z,938.53
2023-04-05T06:27:28.486Z,938.54
2023-04-05T06:28:29.225Z,938.54
2023-04-05T06:29:29.589Z,938.58
2023-04-05T06:30:30.179Z,938.58
2023-04-05T06:31:30.828Z,938.56
2023-04-05T06:32:31.631Z,938.59
2023-04-05T06:33:32.092Z,938.62
2023-04-05T06:34:32.592Z,938.64
2023-04-05T06:35:33.232Z,938.7
2023-04-05T06:36:34.485Z,938.65
2023-04-05T06:37:35.131Z,938.72
2023-04-05T06:38:36.024Z,938.68
2023-04-05T06:39:36.704Z,938.74
2023-04-05T06:40:37.610Z,938.71
2023-04-05T06:41:37.977Z,938.71
2023-04-05T06:42:38.091Z,938.69
2023-04-05T06:43:38.833Z,938.76
2023-04-05T06:44:39.432Z,938.73
2023-04-05T06:45:39.913Z,938.74
2023-04-05T06:46:40.367Z,938.75
2023-04-05T06:47:41.164Z,938.78
2023-04-05T06:48:41.373Z,938.78
2023-04-05T06:49:42.335Z,938.78
2023-04-05T06:50:42.591Z,938.76
2023-04-05T06:51:42.911Z,938.78
2023-04-05T06:52:43.804Z,938.82
2023-04-05T06:53:44.300Z,938.85
2023-04-05T06:54:45.261Z,938.84
2023-04-05T06:55:46.055Z,938.88
2023-04-05T06:56:46.385Z,938.83
2023-04-05T06:57:46.746Z,938.87
2023-04-05T06:58:47.362Z,938.85
2023-04-05T06:59:48.321Z,938.83
2023-04-05T07:00:49.215Z,938.82
2023-04-05T07:01:50.025Z,938.82
2023-04-05T07:02:50.249Z,938.79
2023-04-05T07:03:50.347Z,938.81
2023-04-05T07:04:51.465Z,938.86
2023-04-05T07:05:52.187Z,938.89
2023-04-05T07:06:53.133Z,938.95
2023-04-05T07:07:53.443Z,938.93
2023-04-05T07:08:54.228Z,938.95
2023-04-05T07:09:54.837Z,938.93
2023-04-05T07:10:55.706Z,938.97
2023-04-05T07:11:56.647Z,938.92
2023-04-05T07:12:57.599Z,938.91
2023-04-05T07:13:57.881Z,938.96
2023-04-05T07:14:58.876Z,938.93
2023-04-05T07:15:59.019Z,938.95
2023-04-05T07:16:59.300Z,938.92
2023-04-05T07:17:59.836Z,938.89
2023-04-05T07:19:00.477Z,938.84
2023-04-05T07:20:01.459Z,938.85
2023-04-05T07:21:02.345Z,938.9
2023-04-05T07:22:02.347Z,938.95
2023-04-05T07:23:02.466Z,938.92
2023-04-05T07:24:02.869Z,938.9
2023-04-05T07:25:03.165Z,938.86
2023-04-05T07:26:03.836Z,938.82
2023-04-05T07:27:04.799Z,938.79
2023-04-05T07:28:05.750Z,938.79
2023-04-05T07:29:06.701Z,938.78
2023-04-05T07:31:07.359Z,938.79
2023-04-05T07:32:08.109Z,938.82
2023-04-05T07:33:08.895Z,938.79
2023-04-05T07:34:09.428Z,938.8
2023-04-05T07:35:10.176Z,938.8
2023-04-05T07:36:10.842Z,938.74
2023-04-05T07:37:11.643Z,938.79
2023-04-05T07:38:11.864Z,938.85
2023-04-05T07:39:12.570Z,938.84
2023-04-05T07:40:12.895Z,938.82
2023-04-05T07:41:13.815Z,938.8
2023-04-05T07:42:13.956Z,938.79
2023-04-05T07:43:14.862Z,938.81
2023-04-05T07:44:15.428Z,938.84
2023-04-05T07:45:16.381Z,938.9
2023-04-05T07:46:17.174Z,938.88
2023-04-05T07:47:17.269Z,938.94
2023-04-05T07:48:18.051Z,938.9
2023-04-05T07:49:18.188Z,938.9
2023-04-05T07:50:19.366Z,938.88
2023-04-05T07:51:19.462Z,938.9
2023-04-05T07:52:20.203Z,938.92
2023-04-05T07:53:20.318Z,938.89
2023-04-05T07:54:20.440Z,938.94
2023-04-05T07:55:21.379Z,938.92
2023-04-05T07:56:21.832Z,938.86
2023-04-05T07:57:22.106Z,938.89
2023-04-05T07:58:23.053Z,938.87
2023-04-05T07:59:23.989Z,938.91
2023-04-05T08:00:24.233Z,938.96
2023-04-05T08:01:24.557Z,938.96
2023-04-05T08:02:25.132Z,938.89
2023-04-05T08:03:25.514Z,938.91
2023-04-05T08:04:26.207Z,938.92
2023-04-05T08:05:27.252Z,938.91
2023-04-05T08:06:28.110Z,938.89
2023-04-05T08:07:28.224Z,938.85
2023-04-05T08:08:28.926Z,938.86
2023-04-05T08:09:29.864Z,938.86
2023-04-05T08:10:30.562Z,938.86
2023-04-05T08:11:31.510Z,938.89
2023-04-05T08:12:31.661Z,938.92
2023-04-05T08:13:32.632Z,938.97
2023-04-05T08:14:33.325Z,939.01
2023-04-05T08:15:34.100Z,938.99
2023-04-05T08:16:34.289Z,938.97
2023-04-05T08:17:35.104Z,939
2023-04-05T08:18:35.186Z,938.98
2023-04-05T08:19:35.887Z,938.98
2023-04-05T08:20:36.422Z,938.97
2023-04-05T08:21:36.986Z,938.97
2023-04-05T08:22:38.025Z,938.98
2023-04-05T08:23:38.772Z,938.93
2023-04-05T08:24:38.900Z,938.93
2023-04-05T08:25:42.030Z,938.96
2023-04-05T08:26:40.352Z,938.96
2023-04-05T08:27:40.961Z,938.96
2023-04-05T08:28:41.879Z,938.95
2023-04-05T08:29:42.461Z,938.88
2023-04-05T08:30:43.674Z,938.93
2023-04-05T08:31:43.717Z,938.89
2023-04-05T08:32:43.918Z,938.93
2023-04-05T08:33:44.589Z,938.94
2023-04-05T08:34:44.778Z,938.92
2023-04-05T08:35:45.309Z,938.91
2023-04-05T08:36:48.261Z,938.9
2023-04-05T08:37:46.462Z,938.92
2023-04-05T08:38:47.144Z,938.93
2023-04-05T08:39:47.877Z,938.9
2023-04-05T08:40:48.466Z,938.92
2023-04-05T08:41:48.585Z,938.95
2023-04-05T08:42:49.310Z,938.92
2023-04-05T08:43:50.263Z,938.93
2023-04-05T08:44:50.983Z,938.9
2023-04-05T08:45:51.525Z,938.87
2023-04-05T08:46:52.318Z,938.84
2023-04-05T08:47:52.870Z,938.85
2023-04-05T08:48:53.686Z,938.87
2023-04-05T08:49:54.652Z,938.85
2023-04-05T08:50:55.372Z,938.87
2023-04-05T08:51:56.431Z,938.88
2023-04-05T08:52:57.185Z,938.9
2023-04-05T08:53:57.696Z,938.92
2023-04-05T08:54:58.598Z,938.94
2023-04-05T08:55:58.718Z,938.98
2023-04-05T08:56:59.401Z,938.95
2023-04-05T08:58:00.406Z,938.91
2023-04-05T08:59:01.436Z,938.9
2023-04-05T09:00:02.321Z,938.91
2023-04-05T09:01:03.143Z,938.89
2023-04-05T09:02:03.242Z,938.9
2023-04-05T09:03:04.191Z,938.93
2023-04-05T09:04:04.483Z,938.92
2023-04-05T09:05:04.596Z,938.97
2023-04-05T09:06:04.772Z,938.93
2023-04-05T09:07:05.233Z,938.94
2023-04-05T09:08:06.129Z,938.92
2023-04-05T09:09:07.043Z,938.96
2023-04-05T09:10:07.948Z,938.95
2023-04-05T09:11:08.875Z,938.95
2023-04-05T09:12:09.603Z,938.91
2023-04-05T09:13:09.980Z,938.93
2023-04-05T09:14:10.735Z,938.97
2023-04-05T09:15:11.667Z,938.93
2023-04-05T09:16:12.455Z,938.95
2023-04-05T09:17:12.777Z,938.94
2023-04-05T09:18:23.651Z,938.94
2023-04-05T09:19:13.873Z,938.95
2023-04-05T09:20:14.394Z,938.97
2023-04-05T09:21:15.333Z,938.99
2023-04-05T09:22:16.057Z,939
2023-04-05T09:23:16.191Z,938.92
2023-04-05T09:24:17.094Z,938.99
2023-04-05T09:25:17.821Z,939.02
2023-04-05T09:26:18.719Z,938.98
2023-04-05T09:27:19.723Z,938.94
2023-04-05T09:28:20.653Z,938.96
2023-04-05T09:29:21.574Z,938.98
2023-04-05T09:30:22.167Z,938.94
2023-04-05T09:31:22.369Z,938.93
2023-04-05T09:32:22.728Z,938.86
2023-04-05T09:33:23.617Z,938.84
2023-04-05T09:34:23.729Z,938.84
2023-04-05T09:35:24.443Z,938.84
2023-04-05T09:36:25.517Z,938.85
2023-04-05T09:37:26.353Z,938.79
2023-04-05T09:38:26.631Z,938.84
2023-04-05T09:39:27.122Z,938.76
2023-04-05T09:40:28.179Z,938.79
2023-04-05T09:41:28.826Z,938.78
2023-04-05T09:42:29.132Z,938.75
2023-04-05T09:43:29.285Z,938.72
2023-04-05T09:44:30.043Z,938.7
2023-04-05T09:45:30.736Z,938.71
2023-04-05T09:46:31.764Z,938.72
2023-04-05T09:47:32.036Z,938.69
2023-04-05T09:48:32.708Z,938.66
2023-04-05T09:49:33.633Z,938.71
2023-04-05T09:50:33.753Z,938.69
2023-04-05T09:51:34.346Z,938.68
2023-04-05T09:52:35.275Z,938.65
2023-04-05T09:53:36.021Z,938.66
2023-04-05T09:54:36.721Z,938.71
2023-04-05T09:55:37.423Z,938.71
2023-04-05T09:56:38.150Z,938.76
2023-04-05T09:57:38.874Z,938.81
2023-04-05T09:58:39.753Z,938.84
2023-04-05T09:59:39.973Z,938.82
2023-04-05T10:00:40.880Z,938.85
2023-04-05T10:01:41.782Z,938.85
2023-04-05T10:02:42.068Z,938.9
2023-04-05T10:03:42.662Z,938.92
2023-04-05T10:04:42.811Z,938.9
2023-04-05T10:05:43.614Z,938.9
2023-04-05T10:06:44.559Z,938.88
2023-04-05T10:07:44.733Z,938.85
2023-04-05T10:08:45.412Z,938.91
2023-04-05T10:09:45.932Z,938.94
2023-04-05T10:10:46.740Z,938.91
2023-04-05T10:11:47.649Z,938.96
2023-04-05T10:12:48.376Z,938.93
2023-04-05T10:13:49.335Z,938.92
2023-04-05T10:14:49.536Z,938.96
2023-04-05T10:15:50.682Z,938.91
2023-04-05T10:16:51.757Z,938.91
2023-04-05T10:17:52.645Z,938.87
2023-04-05T10:18:53.637Z,938.85
2023-04-05T10:19:54.460Z,938.81
2023-04-05T10:20:54.679Z,938.86
2023-04-05T10:21:55.717Z,938.85
2023-04-05T10:22:55.821Z,938.83
2023-04-05T10:23:55.973Z,938.85
2023-04-05T10:24:56.521Z,938.89
2023-04-05T10:25:57.102Z,938.89
2023-04-05T10:26:57.736Z,938.88
2023-04-05T10:27:58.697Z,938.86
2023-04-05T10:28:59.496Z,938.86
2023-04-05T10:30:00.256Z,938.84
2023-04-05T10:31:01.350Z,938.8
2023-04-05T10:32:01.666Z,938.82
2023-04-05T10:33:02.038Z,938.78
2023-04-05T10:34:02.704Z,938.75
2023-04-05T10:35:03.387Z,938.79
2023-04-05T10:36:04.406Z,938.75
2023-04-05T10:37:04.679Z,938.76
2023-04-05T10:38:05.489Z,938.76
2023-04-05T10:39:06.330Z,938.77
2023-04-05T10:40:06.548Z,938.77
2023-04-05T10:41:07.576Z,938.76
2023-04-05T10:42:07.900Z,938.77
2023-04-05T10:43:09.001Z,938.76
2023-04-05T10:44:18.772Z,938.78
2023-04-05T10:45:10.786Z,938.79
2023-04-05T10:46:11.240Z,938.78
2023-04-05T10:47:12.362Z,938.73
2023-04-05T10:48:12.814Z,938.79
2023-04-05T10:49:13.629Z,938.8
2023-04-05T10:50:13.889Z,938.8
2023-04-05T10:51:14.479Z,938.8
2023-04-05T10:52:15.521Z,938.76
2023-04-05T10:53:16.532Z,938.73
2023-04-05T10:54:17.407Z,938.7
2023-04-05T10:55:18.000Z,938.66
2023-04-05T10:56:19.016Z,938.61
2023-04-05T10:57:19.672Z,938.63
2023-04-05T10:58:19.962Z,938.55
2023-04-05T10:59:21.092Z,938.59
2023-04-05T11:00:21.424Z,938.58
2023-04-05T11:01:22.544Z,938.57
2023-04-05T11:02:23.200Z,938.64
2023-04-05T11:03:24.332Z,938.6
2023-04-05T11:04:24.381Z,938.59
2023-04-05T11:05:24.897Z,938.62
2023-04-05T11:06:25.675Z,938.59
2023-04-05T11:07:26.638Z,938.61
2023-04-05T11:08:27.189Z,938.63
2023-04-05T11:09:27.962Z,938.7
2023-04-05T11:10:28.703Z,938.69
2023-04-05T11:11:29.077Z,938.66
2023-04-05T11:12:29.377Z,938.71
2023-04-05T11:13:30.114Z,938.7
2023-04-05T11:14:30.816Z,938.7
2023-04-05T11:15:31.126Z,938.72
2023-04-05T11:16:32.147Z,938.68
2023-04-05T11:17:32.254Z,938.62
2023-04-05T11:18:32.529Z,938.65
2023-04-05T11:19:33.081Z,938.66
2023-04-05T11:20:33.773Z,938.63
2023-04-05T11:21:34.780Z,938.65
2023-04-05T11:22:35.680Z,938.62
2023-04-05T11:23:36.199Z,938.62
2023-04-05T11:24:36.935Z,938.61
2023-04-05T11:25:37.656Z,938.64
2023-04-05T11:26:38.172Z,938.59
2023-04-05T11:27:39.008Z,938.59
2023-04-05T11:28:39.472Z,938.58
2023-04-05T11:29:39.536Z,938.59
2023-04-05T11:30:40.435Z,938.56
2023-04-05T11:31:40.853Z,938.59
2023-04-05T11:32:41.752Z,938.55
2023-04-05T11:33:42.735Z,938.56
2023-04-05T11:34:43.516Z,938.54
2023-04-05T11:35:44.211Z,938.51
2023-04-05T11:36:44.453Z,938.5
2023-04-05T11:37:44.943Z,938.48
2023-04-05T11:38:45.793Z,938.48
2023-04-05T11:39:46.742Z,938.5
2023-04-05T11:40:47.293Z,938.47
2023-04-05T11:41:48.197Z,938.42
2023-04-05T11:42:49.056Z,938.38
2023-04-05T11:43:49.546Z,938.45
2023-04-05T11:44:50.082Z,938.41
2023-04-05T11:45:50.614Z,938.43
2023-04-05T11:46:51.506Z,938.41
2023-04-05T11:47:51.829Z,938.49
2023-04-05T11:48:52.516Z,938.43
2023-04-05T11:49:52.841Z,938.42
2023-04-05T11:50:53.804Z,938.41
2023-04-05T11:51:54.300Z,938.42
2023-04-05T11:52:55.146Z,938.4
2023-04-05T11:53:55.103Z,938.4
2023-04-05T11:54:56.071Z,938.38
2023-04-05T11:55:57.164Z,938.38
2023-04-05T11:56:57.707Z,938.36
2023-04-05T11:57:58.421Z,938.33
2023-04-05T11:58:59.035Z,938.33
2023-04-05T11:59:59.765Z,938.35
2023-04-05T12:01:00.517Z,938.4
2023-04-05T12:02:01.257Z,938.36
2023-04-05T12:03:02.291Z,938.42
2023-04-05T12:04:02.393Z,938.4
2023-04-05T12:05:03.254Z,938.43
2023-04-05T12:06:04.243Z,938.4
2023-04-05T12:07:05.178Z,938.4
2023-04-05T12:08:05.889Z,938.4
2023-04-05T12:09:06.983Z,938.35
2023-04-05T12:10:07.719Z,938.38
2023-04-05T12:11:08.292Z,938.35
2023-04-05T12:12:08.803Z,938.35
2023-04-05T12:13:09.299Z,938.34
2023-04-05T12:14:10.066Z,938.36
2023-04-05T12:15:11.118Z,938.33
2023-04-05T12:16:11.932Z,938.36
2023-04-05T12:17:12.284Z,938.3
2023-04-05T12:18:12.884Z,938.3
2023-04-05T12:19:13.690Z,938.31
2023-04-05T12:20:14.612Z,938.28
2023-04-05T12:21:15.554Z,938.27
2023-04-05T12:22:16.263Z,938.31
2023-04-05T12:23:16.845Z,938.26
2023-04-05T12:24:17.784Z,938.26
2023-04-05T12:25:18.558Z,938.28
2023-04-05T12:26:19.518Z,938.26
2023-04-05T12:27:20.422Z,938.27
2023-04-05T12:28:21.171Z,938.22
2023-04-05T12:29:22.063Z,938.2
2023-04-05T12:30:22.835Z,938.22
2023-04-05T12:31:23.761Z,938.23
2023-04-05T12:32:23.911Z,938.2
2023-04-05T12:33:24.591Z,938.16
2023-04-05T12:34:25.483Z,938.14
2023-04-05T12:35:26.388Z,938.15
2023-04-05T12:36:26.543Z,938.15
2023-04-05T12:37:27.308Z,938.14
2023-04-05T12:38:28.227Z,938.19
2023-04-05T12:39:28.511Z,938.16
2023-04-05T12:40:28.619Z,938.2